createdAt,value
2019-01-20T00:01:07.536Z,26.00
2019-01-20T00:03:48.490Z,26.67
2019-01-20T00:09:11.336Z,27.17
2019-01-20T00:11:52.823Z,25.67
2019-01-20T00:14:33.659Z,26.27
2019-01-20T00:17:14.882Z,26.00
2019-01-20T00:19:55.726Z,27.23
2019-01-20T00:22:36.609Z,26.40
2019-01-20T00:25:18.349Z,25.17
2019-01-20T00:30:46.286Z,26.17
2019-01-20T00:33:31.102Z,28.90
2019-01-20T00:36:18.415Z,25.57
2019-01-20T00:41:43.934Z,27.17
2019-01-20T00:44:25.118Z,30.10
2019-01-20T00:47:06.382Z,25.37
2019-01-20T00:49:46.933Z,25.93
2019-01-20T00:52:27.908Z,25.00
2019-01-20T00:55:08.682Z,28.30
2019-01-20T00:57:49.241Z,27.17
2019-01-20T01:00:33.260Z,26.53
2019-01-20T01:03:14.398Z,29.47
2019-01-20T01:05:54.735Z,29.53
2019-01-20T01:08:35.554Z,28.07
2019-01-20T01:11:16.492Z,29.90
2019-01-20T01:16:41.112Z,26.03
2019-01-20T01:22:09.924Z,25.97
2019-01-20T01:27:42.531Z,28.83
2019-01-20T01:30:23.312Z,28.43
2019-01-20T01:35:46.328Z,27.90
2019-01-20T01:38:26.819Z,31.83
2019-01-20T01:41:07.380Z,28.13
2019-01-20T01:43:48.447Z,26.20
2019-01-20T01:46:29.258Z,29.63
2019-01-20T01:48:57.748Z,31.70
2019-01-20T01:51:45.956Z,30.50
2019-01-20T01:54:33.743Z,27.30
2019-01-20T01:57:22.232Z,28.30
2019-01-20T02:00:34.799Z,34.63
2019-01-20T02:03:15.570Z,28.07
2019-01-20T02:05:56.495Z,29.97
2019-01-20T02:08:37.682Z,27.70
2019-01-20T02:11:19.450Z,31.23
2019-01-20T02:14:00.641Z,27.87
2019-01-20T02:16:50.702Z,30.67
2019-01-20T02:19:31.009Z,26.53
2019-01-20T02:22:12.987Z,28.23
2019-01-20T02:24:53.543Z,32.20
2019-01-20T02:27:34.007Z,33.00
2019-01-20T02:30:14.984Z,34.83
2019-01-20T02:35:42.940Z,28.10
2019-01-20T02:38:26.807Z,30.63
2019-01-20T02:41:07.266Z,30.77
2019-01-20T02:46:36.485Z,33.33
2019-01-20T02:49:17.155Z,32.30
2019-01-20T02:51:57.814Z,32.63
2019-01-20T02:57:23.352Z,34.73
2019-01-20T03:00:04.636Z,32.83
2019-01-20T03:02:45.894Z,32.00
2019-01-20T03:05:26.862Z,34.30
2019-01-20T03:08:07.711Z,38.40
2019-01-20T03:10:48.470Z,37.27
2019-01-20T03:13:29.218Z,38.70
2019-01-20T03:16:10.065Z,36.73
2019-01-20T03:18:51.197Z,40.60
2019-01-20T03:21:19.609Z,38.33
2019-01-20T03:24:07.404Z,40.40
2019-01-20T03:26:55.516Z,40.33
2019-01-20T03:29:43.356Z,38.97
2019-01-20T03:32:31.440Z,41.27
2019-01-20T03:35:39.981Z,37.57
2019-01-20T03:38:30.664Z,36.33
2019-01-20T03:41:18.658Z,35.70
2019-01-20T03:44:06.579Z,32.30
2019-01-20T03:47:13.878Z,36.50
2019-01-20T03:50:01.899Z,34.83
2019-01-20T03:52:50.099Z,31.53
2019-01-20T03:55:38.442Z,35.23
2019-01-20T04:01:21.090Z,37.67
2019-01-20T04:04:02.093Z,34.53
2019-01-20T04:06:43.244Z,31.40
2019-01-20T04:09:24.462Z,35.40
2019-01-20T04:14:49.750Z,33.83
2019-01-20T04:17:30.937Z,35.03
2019-01-20T04:20:19.356Z,35.80
2019-01-20T04:26:30.120Z,36.40
2019-01-20T04:28:58.586Z,36.33
2019-01-20T04:34:54.938Z,35.93
2019-01-20T04:37:42.729Z,35.43
2019-01-20T04:40:33.597Z,35.07
2019-01-20T04:43:21.766Z,37.57
2019-01-20T04:46:09.908Z,34.50
2019-01-20T04:48:57.695Z,32.77
2019-01-20T04:51:45.719Z,31.23
2019-01-20T04:54:33.796Z,30.97
2019-01-20T05:00:49.758Z,31.90
2019-01-20T05:03:30.527Z,31.30
2019-01-20T05:06:11.194Z,32.97
2019-01-20T05:08:55.674Z,31.07
2019-01-20T05:11:36.657Z,33.23
2019-01-20T05:14:20.770Z,34.37
2019-01-20T05:19:55.885Z,31.60
2019-01-20T05:22:43.746Z,28.43
2019-01-20T05:25:31.543Z,30.63
2019-01-20T05:28:19.661Z,33.13
2019-01-20T05:31:07.886Z,32.73
2019-01-20T05:33:56.028Z,31.03
2019-01-20T05:36:45.832Z,30.30
2019-01-20T05:39:15.979Z,32.43
2019-01-20T05:42:01.586Z,31.23
2019-01-20T05:44:37.679Z,45.27
2019-01-20T05:47:25.709Z,42.73
2019-01-20T05:50:13.874Z,35.97
2019-01-20T05:53:21.315Z,33.90
2019-01-20T05:56:23.564Z,31.43
2019-01-20T05:59:02.308Z,31.70
2019-01-20T06:01:50.190Z,32.93
2019-01-20T06:04:34.472Z,31.83
2019-01-20T06:10:08.385Z,37.67
2019-01-20T06:15:38.621Z,29.60
2019-01-20T06:18:19.416Z,31.87
2019-01-20T06:23:44.273Z,34.30
2019-01-20T06:26:25.475Z,35.10
2019-01-20T06:29:06.065Z,33.67
2019-01-20T06:31:47.284Z,36.33
2019-01-20T06:34:27.804Z,34.37
2019-01-20T06:37:08.205Z,30.60
2019-01-20T06:39:49.705Z,33.40
2019-01-20T06:42:30.161Z,36.97
2019-01-20T06:45:11.112Z,35.10
2019-01-20T06:47:52.396Z,34.77
2019-01-20T06:50:32.993Z,39.17
2019-01-20T06:53:15.314Z,38.40
2019-01-20T06:55:59.166Z,35.87
2019-01-20T06:58:43.851Z,35.87
2019-01-20T07:04:09.169Z,35.67
2019-01-20T07:09:39.126Z,33.33
2019-01-20T07:15:08.290Z,34.10
2019-01-20T07:20:37.818Z,37.83
2019-01-20T07:26:02.515Z,36.70
2019-01-20T07:31:29.586Z,36.47
2019-01-20T07:34:10.204Z,33.87
2019-01-20T07:36:50.926Z,35.73
2019-01-20T07:39:31.850Z,33.17
2019-01-20T07:45:28.929Z,32.53
2019-01-20T07:48:09.599Z,35.80
2019-01-20T07:50:49.918Z,35.90
2019-01-20T07:53:30.993Z,32.13
2019-01-20T07:56:11.343Z,34.77
2019-01-20T07:58:53.461Z,34.37
2019-01-20T08:01:33.909Z,34.13
2019-01-20T08:04:14.782Z,37.03
2019-01-20T08:06:55.691Z,34.47
2019-01-20T08:12:23.593Z,34.73
2019-01-20T08:17:51.059Z,35.23
2019-01-20T08:20:33.735Z,37.87
2019-01-20T08:23:14.319Z,34.90
2019-01-20T08:25:58.410Z,33.07
2019-01-20T08:28:40.629Z,34.87
2019-01-20T08:31:21.469Z,33.87
2019-01-20T08:34:02.207Z,38.33
2019-01-20T08:36:43.715Z,34.40
2019-01-20T08:39:24.652Z,32.10
2019-01-20T08:42:05.391Z,34.50
2019-01-20T08:44:47.571Z,35.90
2019-01-20T08:47:28.906Z,38.00
2019-01-20T08:50:09.661Z,40.03
2019-01-20T08:52:50.278Z,37.20
2019-01-20T08:55:32.144Z,38.10
2019-01-20T08:58:13.076Z,39.03
2019-01-20T09:00:55.570Z,35.53
2019-01-20T09:03:36.885Z,31.80
2019-01-20T09:06:17.696Z,34.27
2019-01-20T09:08:58.576Z,38.17
2019-01-20T09:11:39.625Z,36.00
2019-01-20T09:17:05.332Z,35.90
2019-01-20T09:19:47.388Z,31.40
2019-01-20T09:22:29.247Z,32.63
2019-01-20T09:25:12.962Z,34.53
2019-01-20T09:27:54.198Z,34.53
2019-01-20T09:33:39.897Z,34.17
2019-01-20T09:39:40.831Z,41.93
2019-01-20T09:45:31.886Z,39.70
2019-01-20T09:48:19.683Z,39.03
2019-01-20T09:51:07.674Z,35.53
2019-01-20T09:56:49.260Z,37.60
2019-01-20T09:59:37.549Z,38.30
2019-01-20T10:02:18.582Z,41.00
2019-01-20T10:05:00.280Z,43.37
2019-01-20T10:07:42.249Z,37.20
2019-01-20T10:13:07.446Z,42.17
2019-01-20T10:15:47.866Z,36.00
2019-01-20T10:18:28.982Z,40.23
2019-01-20T10:21:10.155Z,39.03
2019-01-20T10:23:52.337Z,41.50
2019-01-20T10:26:33.415Z,41.40
2019-01-20T10:29:14.326Z,37.93
2019-01-20T10:31:55.132Z,40.30
2019-01-20T10:34:37.033Z,37.33
2019-01-20T10:37:17.700Z,36.30
2019-01-20T10:39:58.251Z,40.30
2019-01-20T10:42:40.783Z,38.63
2019-01-20T10:45:21.639Z,38.37
2019-01-20T10:48:02.099Z,41.03
2019-01-20T10:50:43.176Z,40.93
2019-01-20T10:53:23.451Z,38.73
2019-01-20T10:56:05.096Z,40.63
2019-01-20T10:58:47.736Z,41.57
2019-01-20T11:01:28.782Z,41.27
2019-01-20T11:04:10.343Z,43.43
2019-01-20T11:06:51.154Z,44.00
2019-01-20T11:09:35.411Z,41.93
2019-01-20T11:12:16.254Z,39.80
2019-01-20T11:14:57.119Z,42.17
2019-01-20T11:17:39.762Z,43.87
2019-01-20T11:20:20.958Z,46.40
2019-01-20T11:23:02.039Z,44.83
2019-01-20T11:25:42.458Z,48.10
2019-01-20T11:28:24.403Z,45.90
2019-01-20T11:33:44.598Z,49.73
2019-01-20T11:39:05.162Z,51.33
2019-01-20T11:41:46.519Z,44.87
2019-01-20T11:44:30.071Z,47.80
2019-01-20T11:47:12.086Z,50.07
2019-01-20T11:49:53.203Z,51.07
2019-01-20T11:52:35.452Z,50.10
2019-01-20T11:55:16.083Z,50.23
2019-01-20T12:00:47.068Z,53.03
2019-01-20T12:03:29.079Z,46.90
2019-01-20T12:06:10.168Z,54.77
2019-01-20T12:08:52.042Z,54.13
2019-01-20T12:11:43.414Z,53.37
2019-01-20T12:14:31.207Z,48.43
2019-01-20T12:17:19.640Z,44.93
2019-01-20T12:23:27.491Z,42.07
2019-01-20T12:26:29.918Z,44.57
2019-01-20T12:29:05.538Z,43.17
2019-01-20T12:33:07.327Z,45.27
2019-01-20T12:37:45.022Z,42.03
2019-01-20T12:40:52.454Z,41.10
2019-01-20T12:43:40.540Z,44.63
2019-01-20T12:46:28.708Z,44.07
2019-01-20T12:49:37.504Z,40.13
2019-01-20T12:52:44.538Z,50.40
2019-01-20T12:58:51.987Z,51.30
2019-01-20T13:01:27.763Z,51.07
2019-01-20T13:04:08.875Z,42.83
2019-01-20T13:09:39.326Z,46.97
2019-01-20T13:12:19.827Z,43.87
2019-01-20T13:15:03.630Z,49.13
2019-01-20T13:17:45.369Z,45.30
2019-01-20T13:20:29.599Z,44.80
2019-01-20T13:23:13.127Z,45.63
2019-01-20T13:25:54.403Z,47.07
2019-01-20T13:28:34.969Z,44.97
2019-01-20T13:34:00.725Z,46.20
2019-01-20T13:36:42.927Z,43.47
2019-01-20T13:39:24.272Z,45.37
2019-01-20T13:42:04.811Z,44.30
2019-01-20T13:44:46.265Z,42.60
2019-01-20T13:47:28.322Z,41.60
2019-01-20T13:50:12.658Z,46.73
2019-01-20T13:55:48.042Z,43.03
2019-01-20T14:01:57.408Z,43.70
2019-01-20T14:04:27.669Z,42.80
2019-01-20T14:15:42.501Z,45.13
2019-01-20T14:21:09.780Z,44.00
2019-01-20T14:23:51.866Z,45.10
2019-01-20T14:29:17.247Z,44.50
2019-01-20T14:31:59.384Z,45.03
2019-01-20T14:34:40.995Z,45.37
2019-01-20T14:37:21.655Z,48.23
2019-01-20T14:40:02.615Z,44.43
2019-01-20T14:42:43.338Z,47.57
2019-01-20T14:45:25.183Z,48.17
2019-01-20T14:53:58.252Z,40.03
2019-01-20T14:56:40.555Z,41.40
2019-01-20T14:59:22.995Z,40.87
2019-01-20T15:04:49.766Z,41.90
2019-01-20T15:10:14.267Z,44.80
2019-01-20T15:12:55.084Z,48.33
2019-01-20T15:15:39.091Z,48.20
2019-01-20T15:23:47.567Z,47.00
2019-01-20T15:26:29.548Z,46.80
2019-01-20T15:29:10.391Z,44.07
2019-01-20T15:34:40.159Z,41.93
2019-01-20T15:37:22.372Z,46.73
2019-01-20T15:40:04.867Z,44.67
2019-01-20T15:42:46.250Z,45.80
2019-01-20T15:45:29.613Z,45.10
2019-01-20T15:50:54.671Z,44.77
2019-01-20T15:53:35.687Z,46.87
2019-01-20T15:56:16.911Z,41.70
2019-01-20T15:58:58.001Z,48.03
2019-01-20T16:01:39.165Z,42.33
2019-01-20T16:04:24.051Z,45.47
2019-01-20T16:09:47.491Z,52.97
2019-01-20T16:15:12.778Z,46.20
2019-01-20T16:17:54.364Z,44.13
2019-01-20T16:20:35.802Z,45.50
2019-01-20T16:26:02.074Z,44.97
2019-01-20T16:31:39.791Z,48.00
2019-01-20T16:37:00.921Z,44.10
2019-01-20T16:39:45.660Z,47.60
2019-01-20T16:42:25.687Z,43.50
2019-01-20T16:45:06.531Z,47.47
2019-01-20T16:47:47.125Z,46.40
2019-01-20T16:50:29.760Z,45.70
2019-01-20T16:55:56.438Z,46.80
2019-01-20T16:58:39.151Z,51.50
2019-01-20T17:01:20.128Z,108.77
2019-01-20T17:04:00.987Z,76.27
2019-01-20T17:06:41.591Z,53.80
2019-01-20T17:09:23.843Z,44.13
2019-01-20T17:12:04.645Z,43.53
2019-01-20T17:14:46.157Z,40.70
2019-01-20T17:17:27.235Z,42.13
2019-01-20T17:20:08.092Z,45.90
2019-01-20T17:22:49.358Z,44.13
2019-01-20T17:25:30.471Z,44.37
2019-01-20T17:28:11.147Z,43.10
2019-01-20T17:30:51.808Z,46.53
2019-01-20T17:33:32.847Z,45.13
2019-01-20T17:36:14.302Z,44.23
2019-01-20T17:41:40.172Z,39.63
2019-01-20T17:44:22.329Z,41.50
2019-01-20T17:47:04.407Z,41.77
2019-01-20T17:52:29.051Z,43.70
2019-01-20T17:55:09.527Z,37.87
2019-01-20T17:57:51.193Z,39.77
2019-01-20T18:00:33.735Z,61.20
2019-01-20T18:03:15.049Z,45.90
2019-01-20T18:05:56.479Z,38.13
2019-01-20T18:08:38.058Z,44.50
2019-01-20T18:11:18.671Z,43.23
2019-01-20T18:13:59.198Z,41.13
2019-01-20T18:16:43.412Z,39.30
2019-01-20T18:19:27.745Z,42.83
2019-01-20T18:22:08.896Z,47.87
2019-01-20T18:27:34.271Z,44.80
2019-01-20T18:30:15.065Z,40.87
2019-01-20T18:32:55.680Z,41.73
2019-01-20T18:35:38.265Z,37.43
2019-01-20T18:38:19.015Z,44.73
2019-01-20T18:41:00.487Z,43.20
2019-01-20T18:43:41.668Z,45.23
2019-01-20T18:46:21.965Z,45.67
2019-01-20T18:49:02.864Z,42.07
2019-01-20T18:54:45.486Z,44.13
2019-01-20T18:57:33.834Z,45.03
2019-01-20T19:00:40.967Z,47.33
2019-01-20T19:03:23.277Z,41.50
2019-01-20T19:06:04.194Z,42.83
2019-01-20T19:08:45.487Z,41.10
2019-01-20T19:11:27.749Z,47.63
2019-01-20T19:14:08.676Z,51.63
2019-01-20T19:16:49.258Z,41.10
2019-01-20T19:19:30.090Z,39.73
2019-01-20T19:24:55.968Z,39.23
2019-01-20T19:27:37.986Z,48.97
2019-01-20T19:30:18.472Z,44.80
2019-01-20T19:32:59.789Z,41.17
2019-01-20T19:35:40.337Z,43.47
2019-01-20T19:38:21.249Z,42.93
2019-01-20T19:41:02.177Z,44.93
2019-01-20T19:43:42.956Z,48.73
2019-01-20T19:46:23.331Z,47.90
2019-01-20T19:49:04.454Z,48.07
2019-01-20T19:54:34.752Z,49.50
2019-01-20T19:57:15.970Z,46.30
2019-01-20T19:59:57.491Z,48.80
2019-01-20T20:02:39.983Z,46.53
2019-01-20T20:05:21.766Z,56.40
2019-01-20T20:08:03.905Z,69.70
2019-01-20T20:10:44.294Z,94.63
2019-01-20T20:13:25.850Z,57.07
2019-01-20T20:16:06.754Z,47.07
2019-01-20T20:21:51.030Z,50.60
2019-01-20T20:24:32.459Z,46.47
2019-01-20T20:27:12.888Z,42.20
2019-01-20T20:29:53.756Z,45.00
2019-01-20T20:32:35.485Z,39.13
2019-01-20T20:35:16.534Z,41.77
2019-01-20T20:37:59.075Z,38.63
2019-01-20T20:40:39.724Z,43.93
2019-01-20T20:43:22.272Z,44.10
2019-01-20T20:46:04.348Z,40.30
2019-01-20T20:48:45.811Z,38.97
2019-01-20T20:51:29.908Z,38.50
2019-01-20T20:54:11.012Z,41.33
2019-01-20T20:56:53.786Z,39.97
2019-01-20T20:59:35.003Z,39.07
2019-01-20T21:02:15.604Z,37.83
2019-01-20T21:04:57.123Z,44.20
2019-01-20T21:07:38.258Z,39.87
2019-01-20T21:10:20.634Z,38.17
2019-01-20T21:15:50.962Z,41.27
2019-01-20T21:18:32.291Z,39.43
2019-01-20T21:21:13.211Z,39.00
2019-01-20T21:23:56.688Z,43.60
2019-01-20T21:26:37.354Z,39.40
2019-01-20T21:29:18.715Z,43.40
2019-01-20T21:31:59.703Z,38.33
2019-01-20T21:34:43.283Z,41.47
2019-01-20T21:37:24.367Z,36.67
2019-01-20T21:40:08.134Z,39.17
2019-01-20T21:42:48.669Z,38.90
2019-01-20T21:45:29.415Z,42.80
2019-01-20T21:48:10.743Z,37.83
2019-01-20T21:50:51.885Z,38.90
2019-01-20T21:53:32.417Z,40.27
2019-01-20T21:56:13.265Z,41.63
2019-01-20T21:58:54.153Z,40.47
2019-01-20T22:01:34.592Z,39.20
2019-01-20T22:04:14.997Z,37.63
2019-01-20T22:06:58.917Z,37.63
2019-01-20T22:09:39.814Z,38.73
2019-01-20T22:12:24.309Z,39.53
2019-01-20T22:14:52.828Z,41.67
2019-01-20T22:17:41.090Z,42.60
2019-01-20T22:20:50.113Z,41.27
2019-01-20T22:23:26.158Z,41.60
2019-01-20T22:26:14.099Z,41.37
2019-01-20T22:29:02.195Z,37.40
2019-01-20T22:34:44.115Z,40.17
2019-01-20T22:37:31.936Z,40.53
2019-01-20T22:40:19.972Z,38.43
2019-01-20T22:43:28.543Z,43.83
2019-01-20T22:46:16.327Z,42.20
2019-01-20T22:49:04.164Z,40.53
2019-01-20T22:51:52.761Z,42.40
2019-01-20T22:54:40.226Z,42.13
2019-01-20T22:57:28.443Z,43.23
2019-01-20T23:03:30.078Z,42.73
2019-01-20T23:06:13.606Z,42.90
2019-01-20T23:08:54.943Z,38.80
2019-01-20T23:14:23.130Z,41.47
2019-01-20T23:17:11.393Z,42.03
2019-01-20T23:19:59.194Z,41.77
2019-01-20T23:22:47.071Z,44.23
2019-01-20T23:25:34.933Z,41.20
2019-01-20T23:28:22.775Z,43.10
2019-01-20T23:31:10.951Z,41.03
2019-01-20T23:34:18.056Z,42.60
2019-01-20T23:37:06.073Z,41.57
2019-01-20T23:39:53.850Z,44.00
2019-01-20T23:42:41.767Z,44.80
2019-01-20T23:45:29.567Z,41.70
2019-01-20T23:48:17.408Z,39.87
2019-01-20T23:53:59.999Z,40.70
2019-01-20T23:56:48.054Z,45.20
2019-01-20T23:59:36.881Z,39.70
